Time;durP1;ratioP1;P1;durP2;ratioP2;P2;SDS_P1;SDS_P2;PMS_P1;PMS_P2;Temp;Humidity;BMP_temperature;BMP_pressure;BME280_temperature;BME280_humidity;BME280_pressure;Samples;Min_cycle;Max_cycle;Signal;HPM_P1;HPM_P2
2022/06/21 00:00:23;;;;;;;1999.90;999.90;;;10.30;99.90;;;;;;5053594;28;20398;-78
2022/06/21 00:02:54;;;;;;;1999.90;999.90;;;10.20;99.90;;;;;;5071884;28;20048;-78
2022/06/21 00:05:34;;;;;;;1999.90;999.90;;;10.20;99.90;;;;;;5055285;28;20118;-78
2022/06/21 00:08:05;;;;;;;1999.90;999.90;;;10.20;99.90;;;;;;5054252;28;20085;-78
2022/06/21 00:10:34;;;;;;;1999.90;999.90;;;10.10;99.90;;;;;;5105455;28;20115;-78
2022/06/21 00:13:10;;;;;;;1999.90;999.90;;;10.10;99.90;;;;;;5088282;28;20036;-78
2022/06/21 00:15:36;;;;;;;1999.90;999.90;;;10.10;99.90;;;;;;5054514;28;20101;-78
2022/06/21 00:18:02;;;;;;;1999.90;999.90;;;10.00;99.90;;;;;;5069151;28;20447;-78
2022/06/21 00:20:27;;;;;;;1999.90;999.90;;;10.00;99.90;;;;;;5103420;28;20048;-78
2022/06/21 00:22:53;;;;;;;1999.90;999.90;;;9.90;99.90;;;;;;5053778;28;20050;-78
2022/06/21 00:25:25;;;;;;;1999.90;999.90;;;9.90;99.90;;;;;;5105020;28;20040;-78
2022/06/21 00:27:52;;;;;;;1999.90;999.90;;;9.80;99.90;;;;;;5053796;28;20090;-78
2022/06/21 00:30:18;;;;;;;1999.90;999.90;;;9.80;99.90;;;;;;5087736;28;20055;-78
2022/06/21 00:32:46;;;;;;;1999.90;999.90;;;9.70;99.90;;;;;;5086570;28;20448;-78
2022/06/21 00:35:16;;;;;;;1999.90;999.90;;;9.70;99.90;;;;;;5054481;28;20436;-78
2022/06/21 00:37:42;;;;;;;1999.90;999.90;;;9.60;99.90;;;;;;5095092;28;20032;-78
2022/06/21 00:40:17;;;;;;;1999.90;999.90;;;9.60;99.90;;;;;;5068029;28;20105;-78
2022/06/21 00:42:45;;;;;;;1999.90;999.90;;;9.50;99.90;;;;;;5083430;28;20054;-78
2022/06/21 00:45:23;;;;;;;1999.90;999.90;;;9.50;99.90;;;;;;5053817;28;20066;-78
2022/06/21 00:47:52;;;;;;;1999.90;999.90;;;9.50;99.90;;;;;;5102922;28;20051;-78
2022/06/21 00:50:32;;;;;;;1999.90;999.90;;;9.40;99.90;;;;;;5069712;28;20051;-78
2022/06/21 00:53:20;;;;;;;1999.90;999.90;;;9.30;99.90;;;;;;5096659;28;20452;-78
2022/06/21 00:56:10;;;;;;;1999.90;999.90;;;9.30;99.90;;;;;;5071058;28;20055;-78
2022/06/21 00:58:36;;;;;;;1999.90;999.90;;;9.20;99.90;;;;;;5090524;28;20082;-78
2022/06/21 01:01:07;;;;;;;1999.90;999.90;;;9.20;99.90;;;;;;5062505;28;20036;-78
2022/06/21 01:03:37;;;;;;;1999.90;999.90;;;9.10;99.90;;;;;;5068604;28;20040;-79
2022/06/21 01:06:07;;;;;;;1999.90;999.90;;;9.10;99.90;;;;;;5052192;28;20040;-79
2022/06/21 01:08:37;;;;;;;1999.90;999.90;;;9.10;99.90;;;;;;5100115;28;20041;-78
2022/06/21 01:11:10;;;;;;;1999.90;999.90;;;9.10;99.90;;;;;;5070345;28;20452;-78
2022/06/21 01:13:41;;;;;;;1999.90;999.90;;;9.00;99.90;;;;;;5067008;28;20128;-79
2022/06/21 01:16:07;;;;;;;1999.90;999.90;;;9.00;99.90;;;;;;5100565;28;20453;-78
2022/06/21 01:18:34;;;;;;;1999.90;999.90;;;8.90;99.90;;;;;;5086770;28;20067;-78
2022/06/21 01:21:02;;;;;;;1999.90;999.90;;;9.00;99.90;;;;;;5052035;28;20118;-78
2022/06/21 01:23:45;;;;;;;1999.90;999.90;;;9.00;99.90;;;;;;5054029;28;20496;-78
2022/06/21 01:26:51;;;;;;;1999.90;999.90;;;9.00;99.90;;;;;;5053961;28;20044;-78
2022/06/21 01:29:21;;;;;;;1999.90;999.90;;;9.00;99.90;;;;;;5049572;28;20528;-78
2022/06/21 01:31:47;;;;;;;1999.90;999.90;;;8.90;99.90;;;;;;5068732;28;20612;-78
2022/06/21 01:34:25;;;;;;;1999.90;999.90;;;8.90;99.90;;;;;;5086391;28;20054;-78
2022/06/21 01:37:06;;;;;;;1999.90;999.90;;;8.80;99.90;;;;;;5049994;28;20127;-78
2022/06/21 01:40:00;;;;;;;1999.90;999.90;;;8.70;99.90;;;;;;5101713;28;20036;-78
2022/06/21 01:42:32;;;;;;;1999.90;999.90;;;8.60;99.90;;;;;;5079916;28;20466;-78
2022/06/21 01:45:02;;;;;;;1999.90;999.90;;;8.60;99.90;;;;;;5070366;28;20044;-78
2022/06/21 01:47:35;;;;;;;1999.90;999.90;;;8.50;99.90;;;;;;5067901;28;20039;-78
2022/06/21 01:50:07;;;;;;;1999.90;999.90;;;8.50;99.90;;;;;;5056871;28;20044;-78
2022/06/21 01:52:36;;;;;;;1999.90;999.90;;;8.50;99.90;;;;;;5072400;28;20059;-78
2022/06/21 01:55:06;;;;;;;1999.90;999.90;;;8.50;99.90;;;;;;5086746;28;20123;-78
2022/06/21 01:57:32;;;;;;;1999.90;999.90;;;8.50;99.90;;;;;;5068876;28;20052;-78
2022/06/21 01:59:58;;;;;;;1999.90;999.90;;;8.40;99.90;;;;;;5101097;28;20043;-78
2022/06/21 02:02:31;;;;;;;1999.90;999.90;;;8.40;99.90;;;;;;5049959;28;20469;-78
2022/06/21 02:05:01;;;;;;;1999.90;999.90;;;8.30;99.90;;;;;;5066992;28;21336;-78
2022/06/21 02:07:34;;;;;;;1999.90;999.90;;;8.30;99.90;;;;;;5070144;28;20062;-78
2022/06/21 02:10:03;;;;;;;1999.90;999.90;;;8.20;99.90;;;;;;5050312;28;20087;-78
2022/06/21 02:12:30;;;;;;;1999.90;999.90;;;8.20;99.90;;;;;;5081191;28;20128;-78
2022/06/21 02:14:57;;;;;;;1999.90;999.90;;;8.20;99.90;;;;;;5074005;28;20404;-78
2022/06/21 02:17:27;;;;;;;1999.90;999.90;;;8.20;99.90;;;;;;5057026;28;20085;-78
2022/06/21 02:20:08;;;;;;;1999.90;999.90;;;8.10;99.90;;;;;;5057144;28;20044;-78
2022/06/21 02:22:34;;;;;;;1999.90;999.90;;;8.10;99.90;;;;;;5090732;28;20405;-78
2022/06/21 02:25:02;;;;;;;1999.90;999.90;;;8.00;99.90;;;;;;5056710;28;20043;-78
2022/06/21 02:27:31;;;;;;;1999.90;999.90;;;8.00;99.90;;;;;;5071487;28;20087;-78
2022/06/21 02:30:00;;;;;;;1999.90;999.90;;;7.90;99.90;;;;;;5057350;28;20087;-78
2022/06/21 02:32:32;;;;;;;1999.90;999.90;;;7.90;99.90;;;;;;5077542;28;20052;-78
2022/06/21 02:35:12;;;;;;;1999.90;999.90;;;7.90;99.90;;;;;;5071288;28;20097;-78
2022/06/21 02:37:38;;;;;;;1999.90;999.90;;;8.00;99.90;;;;;;5066041;28;20143;-78
2022/06/21 02:40:07;;;;;;;1999.90;999.90;;;8.10;99.90;;;;;;5103456;28;20048;-78
2022/06/21 02:42:37;;;;;;;1999.90;999.90;;;8.10;99.90;;;;;;5063884;28;20126;-78
2022/06/21 02:45:25;;;;;;;1999.90;999.90;;;8.10;99.90;;;;;;5101054;28;20483;-78
2022/06/21 02:47:53;;;;;;;1999.90;999.90;;;8.10;99.90;;;;;;5054820;28;20052;-78
2022/06/21 02:50:32;;;;;;;1999.90;999.90;;;8.00;99.90;;;;;;5056629;28;20048;-78
2022/06/21 02:53:00;;;;;;;1999.90;999.90;;;8.00;99.90;;;;;;5069421;28;20227;-78
2022/06/21 02:55:45;;;;;;;1999.90;999.90;;;8.00;99.90;;;;;;5073056;28;20444;-78
2022/06/21 02:58:38;;;;;;;1999.90;999.90;;;8.10;99.90;;;;;;5070046;28;20047;-78
2022/06/21 03:01:11;;;;;;;1999.90;999.90;;;8.10;99.90;;;;;;5064574;28;20055;-78
2022/06/21 03:03:37;;;;;;;1999.90;999.90;;;8.10;99.90;;;;;;5055511;28;20055;-78
2022/06/21 03:06:07;;;;;;;1999.90;999.90;;;8.20;99.90;;;;;;5056448;28;20048;-78
2022/06/21 03:08:35;;;;;;;1999.90;999.90;;;8.30;99.90;;;;;;5071419;28;20048;-78
2022/06/21 03:11:01;;;;;;;1999.90;999.90;;;8.30;99.90;;;;;;5055484;28;20509;-78
2022/06/21 03:13:34;;;;;;;1999.90;999.90;;;8.40;99.90;;;;;;5097539;28;20135;-78
2022/06/21 03:16:05;;;;;;;1999.90;999.90;;;8.40;99.90;;;;;;5105424;28;20059;-78
2022/06/21 03:18:36;;;;;;;1999.90;999.90;;;8.50;99.90;;;;;;5072271;28;20464;-78
2022/06/21 03:21:03;;;;;;;1999.90;999.90;;;8.50;99.90;;;;;;5071350;28;20043;-78
2022/06/21 03:23:29;;;;;;;1999.90;999.90;;;8.60;99.90;;;;;;5056018;28;20073;-78
2022/06/21 03:26:00;;;;;;;1999.90;999.90;;;8.60;99.90;;;;;;5072394;28;20508;-78
2022/06/21 03:28:28;;;;;;;1999.90;999.90;;;8.60;99.90;;;;;;5066305;28;20501;-78
2022/06/21 03:31:14;;;;;;;1999.90;999.90;;;8.70;99.90;;;;;;5055791;28;20048;-78
2022/06/21 03:33:46;;;;;;;1999.90;999.90;;;8.70;99.90;;;;;;5088109;28;20390;-78
2022/06/21 03:36:17;;;;;;;1999.90;999.90;;;8.70;99.90;;;;;;5055853;28;20040;-78
2022/06/21 03:38:46;;;;;;;1999.90;999.90;;;8.70;99.90;;;;;;5063873;28;20059;-78
2022/06/21 03:44:21;;;;;;;1999.90;999.90;;;8.90;99.90;;;;;;5070477;28;20494;-78
2022/06/21 03:46:50;;;;;;;1999.90;999.90;;;8.90;99.90;;;;;;5070966;28;20139;-77
2022/06/21 03:49:35;;;;;;;1999.90;999.90;;;8.90;99.90;;;;;;5072355;28;20052;-78
2022/06/21 03:52:08;;;;;;;1999.90;999.90;;;9.00;99.90;;;;;;5070120;28;20039;-78
2022/06/21 03:54:43;;;;;;;1999.90;999.90;;;9.00;99.90;;;;;;5055543;28;20451;-78
2022/06/21 03:57:21;;;;;;;1999.90;999.90;;;9.10;99.90;;;;;;5087581;28;20040;-78
2022/06/21 04:00:00;;;;;;;1999.90;999.90;;;9.10;99.90;;;;;;5072043;28;20040;-78
2022/06/21 04:02:51;;;;;;;1999.90;999.90;;;9.10;99.90;;;;;;5101936;28;20460;-77
2022/06/21 04:05:39;;;;;;;1999.90;999.90;;;9.00;99.90;;;;;;5025301;28;20131;-78
2022/06/21 04:08:14;;;;;;;1999.90;999.90;;;9.00;99.90;;;;;;5086636;28;20082;-78
2022/06/21 04:11:06;;;;;;;1999.90;999.90;;;9.00;99.90;;;;;;5102943;28;20071;-77
2022/06/21 04:13:40;;;;;;;1999.90;999.90;;;9.00;99.90;;;;;;5059047;28;20039;-78
2022/06/21 04:16:16;;;;;;;1999.90;999.90;;;9.00;99.90;;;;;;5104810;28;20044;-78
2022/06/21 04:18:44;;;;;;;1999.90;999.90;;;9.00;99.90;;;;;;5104580;28;20044;-78
2022/06/21 04:21:18;;;;;;;1999.90;999.90;;;9.00;99.90;;;;;;5071078;28;20036;-78
2022/06/21 04:24:04;;;;;;;1999.90;999.90;;;9.10;99.90;;;;;;5069621;28;20097;-78
2022/06/21 04:26:35;;;;;;;1999.90;999.90;;;9.10;99.90;;;;;;5072435;28;20047;-78
2022/06/21 04:29:17;;;;;;;1999.90;999.90;;;9.20;99.90;;;;;;5102032;28;20048;-78
2022/06/21 04:31:59;;;;;;;1999.90;999.90;;;9.30;99.90;;;;;;5097956;28;20047;-78
2022/06/21 04:34:30;;;;;;;1999.90;999.90;;;9.50;99.90;;;;;;5051872;28;20036;-78
2022/06/21 04:37:06;;;;;;;1999.90;999.90;;;10.10;99.90;;;;;;5104276;28;20040;-78
2022/06/21 04:39:40;;;;;;;1999.90;999.90;;;10.70;99.90;;;;;;5106860;28;20047;-78
2022/06/21 04:42:22;;;;;;;1999.90;999.90;;;11.00;99.90;;;;;;5053349;28;20032;-78
2022/06/21 04:44:55;;;;;;;1999.90;999.90;;;11.10;99.90;;;;;;5096183;28;20047;-78
2022/06/21 04:47:32;;;;;;;1999.90;999.90;;;10.90;99.90;;;;;;5070389;28;20031;-78
2022/06/21 04:50:21;;;;;;;1999.90;999.90;;;10.80;99.90;;;;;;5053367;28;20140;-78
2022/06/21 04:53:01;;;;;;;1999.90;999.90;;;10.80;99.90;;;;;;5053298;28;20051;-78
2022/06/21 04:55:49;;;;;;;1999.90;999.90;;;10.80;99.90;;;;;;5104654;28;20043;-78
2022/06/21 04:58:15;;;;;;;1999.90;999.90;;;10.80;99.90;;;;;;5070992;28;20127;-78
2022/06/21 05:00:41;;;;;;;1999.90;999.90;;;11.00;99.90;;;;;;5087072;28;20036;-78
2022/06/21 05:03:24;;;;;;;1999.90;999.90;;;11.10;99.90;;;;;;5086829;28;20125;-78
2022/06/21 05:05:50;;;;;;;1999.90;999.90;;;11.30;99.90;;;;;;5070146;28;20044;-78
2022/06/21 05:08:21;;;;;;;1999.90;999.90;;;11.50;99.90;;;;;;5065822;28;20513;-78
2022/06/21 05:10:50;;;;;;;1999.90;999.90;;;11.70;99.90;;;;;;5084517;28;20785;-78
2022/06/21 05:13:48;;;;;;;1999.90;999.90;;;12.30;99.90;;;;;;5069593;28;20225;-78
2022/06/21 05:16:24;;;;;;;1999.90;999.90;;;13.20;99.90;;;;;;5084435;28;20051;-78
2022/06/21 05:19:02;;;;;;;1999.90;999.90;;;13.70;99.90;;;;;;5066103;28;20036;-78
2022/06/21 05:21:37;;;;;;;1999.90;999.90;;;14.10;99.90;;;;;;5099118;28;20121;-78
2022/06/21 05:24:04;;;;;;;1999.90;999.90;;;14.20;99.90;;;;;;5055575;28;20097;-78
2022/06/21 05:26:42;;;;;;;1999.90;999.90;;;14.70;99.90;;;;;;5053841;28;20135;-78
2022/06/21 05:29:14;;;;;;;1999.90;999.90;;;14.80;99.90;;;;;;5083545;28;20590;-78
2022/06/21 05:31:45;;;;;;;1999.90;999.90;;;14.60;99.90;;;;;;5085121;28;20044;-78
2022/06/21 05:34:25;;;;;;;1999.90;999.90;;;14.40;99.90;;;;;;5070611;28;21285;-78
2022/06/21 05:36:57;;;;;;;1999.90;999.90;;;14.30;99.90;;;;;;5100210;28;20055;-78
2022/06/21 05:39:31;;;;;;;1999.90;999.90;;;14.20;99.90;;;;;;5050798;28;20113;-78
2022/06/21 05:42:01;;;;;;;1999.90;999.90;;;14.10;99.90;;;;;;5086882;28;20147;-78
2022/06/21 05:44:48;;;;;;;1999.90;999.90;;;14.10;99.90;;;;;;5101891;28;20036;-78
2022/06/21 05:47:28;;;;;;;1999.90;999.90;;;14.20;99.90;;;;;;5053143;28;20546;-79
2022/06/21 05:49:57;;;;;;;1999.90;999.90;;;14.30;99.90;;;;;;5075177;28;20048;-78
2022/06/21 05:52:27;;;;;;;1999.90;999.90;;;14.50;99.90;;;;;;5085520;28;20040;-78
2022/06/21 05:55:00;;;;;;;1999.90;999.90;;;14.60;99.90;;;;;;5084284;28;20490;-78
2022/06/21 05:57:44;;;;;;;1999.90;999.90;;;14.70;99.90;;;;;;5046830;28;20868;-78
2022/06/21 06:00:24;;;;;;;1999.90;999.90;;;15.00;99.90;;;;;;5061508;28;20043;-79
2022/06/21 06:02:55;;;;;;;1999.90;999.90;;;15.30;99.90;;;;;;5102299;28;20047;-79
2022/06/21 06:05:28;;;;;;;1999.90;999.90;;;15.50;99.90;;;;;;5086925;28;20101;-78
2022/06/21 06:08:07;;;;;;;1999.90;999.90;;;16.00;99.90;;;;;;5068001;28;20051;-78
2022/06/21 06:10:33;;;;;;;1999.90;999.90;;;16.20;99.90;;;;;;5087254;28;20405;-79
2022/06/21 06:13:05;;;;;;;1999.90;999.90;;;16.50;99.90;;;;;;5085592;28;20040;-79
2022/06/21 06:15:36;;;;;;;1999.90;999.90;;;16.50;99.90;;;;;;5085597;28;20401;-79
2022/06/21 06:18:15;;;;;;;1999.90;999.90;;;16.30;99.90;;;;;;5062601;28;20057;-78
2022/06/21 06:20:44;;;;;;;1999.90;999.90;;;16.20;99.90;;;;;;5077151;28;20036;-79
2022/06/21 06:23:32;;;;;;;1999.90;999.90;;;16.00;99.90;;;;;;5062350;28;20049;-79
2022/06/21 06:26:01;;;;;;;1999.90;999.90;;;15.90;99.90;;;;;;5094825;28;20096;-79
2022/06/21 06:28:51;;;;;;;1999.90;999.90;;;16.00;99.90;;;;;;5080697;28;20051;-79
2022/06/21 06:31:32;;;;;;;1999.90;999.90;;;16.30;99.90;;;;;;5055447;28;20044;-79
2022/06/21 06:34:02;;;;;;;1999.90;999.90;;;16.60;99.90;;;;;;5060574;28;20363;-79
2022/06/21 06:36:34;;;;;;;1999.90;999.90;;;16.70;99.90;;;;;;5075926;28;20043;-79
2022/06/21 06:39:02;;;;;;;1999.90;999.90;;;16.70;99.90;;;;;;5059543;28;21700;-79
2022/06/21 06:41:31;;;;;;;1999.90;999.90;;;16.80;99.90;;;;;;5100098;28;20059;-79
2022/06/21 06:44:01;;;;;;;1999.90;999.90;;;17.30;99.90;;;;;;5060992;28;20451;-80
2022/06/21 06:46:28;;;;;;;1999.90;999.90;;;18.20;99.90;;;;;;5108739;28;20093;-80
2022/06/21 06:49:19;;;;;;;1999.90;999.90;;;19.20;99.90;;;;;;5068878;28;20040;-80
2022/06/21 06:51:53;;;;;;;1999.90;999.90;;;20.00;99.90;;;;;;5101136;28;20044;-79
2022/06/21 06:54:32;;;;;;;1999.90;999.90;;;20.60;99.90;;;;;;5069917;28;20048;-80
2022/06/21 06:57:03;;;;;;;1999.90;999.90;;;21.40;99.90;;;;;;5103963;28;20043;-80
2022/06/21 06:59:28;;;;;;;1999.90;999.90;;;21.80;99.90;;;;;;5071680;28;20493;-80
2022/06/21 07:01:57;;;;;;;1999.90;999.90;;;21.70;99.90;;;;;;5056757;28;20028;-80
2022/06/21 07:04:24;;;;;;;1999.90;999.90;;;21.60;99.90;;;;;;5068511;28;20040;-80
2022/06/21 07:06:57;;;;;;;1999.90;999.90;;;21.10;99.90;;;;;;5067183;28;20051;-80
2022/06/21 07:09:25;;;;;;;1999.90;999.90;;;20.40;99.90;;;;;;5063349;28;20340;-79
2022/06/21 07:12:02;;;;;;;1999.90;999.90;;;20.00;99.90;;;;;;5061305;28;20059;-79
2022/06/21 07:14:29;;;;;;;1999.90;999.90;;;19.70;99.90;;;;;;5106609;28;20557;-79
2022/06/21 07:17:09;;;;;;;1999.90;999.90;;;20.40;99.90;;;;;;5089757;28;20481;-80
2022/06/21 07:19:35;;;;;;;1999.90;999.90;;;21.10;99.90;;;;;;5102878;28;20114;-80
2022/06/21 07:22:01;;;;;;;1999.90;999.90;;;21.80;99.90;;;;;;5052642;28;20066;-80
2022/06/21 07:24:27;;;;;;;1999.90;999.90;;;22.60;99.90;;;;;;5088468;28;20048;-80
2022/06/21 07:26:59;;;;;;;1999.90;999.90;;;23.00;99.90;;;;;;5056249;28;20087;-80
2022/06/21 07:29:34;;;;;;;1999.90;999.90;;;22.40;99.90;;;;;;5056526;28;20056;-80
2022/06/21 07:32:08;;;;;;;1999.90;999.90;;;21.80;98.00;;;;;;5052048;28;20123;-80
2022/06/21 07:34:42;;;;;;;1999.90;999.90;;;21.40;98.50;;;;;;5055952;28;20379;-80
2022/06/21 07:37:24;;;;;;;1999.90;999.90;;;20.80;99.90;;;;;;5089579;28;20100;-80
2022/06/21 07:40:03;;;;;;;1999.90;999.90;;;21.00;99.90;;;;;;5082800;28;20080;-80
2022/06/21 07:42:33;;;;;;;1999.90;999.90;;;21.80;99.90;;;;;;5056039;28;20413;-79
2022/06/21 07:45:06;;;;;;;1999.90;999.90;;;21.80;99.90;;;;;;5089620;28;20043;-80
2022/06/21 07:47:37;;;;;;;;;;;21.10;99.00;;;;;;5072672;28;20043;-80
2022/06/21 07:50:11;;;;;;;1999.90;999.90;;;20.60;99.90;;;;;;5066894;28;19916;-80
2022/06/21 07:52:49;;;;;;;1999.90;999.90;;;19.90;99.90;;;;;;5071451;28;20102;-80
2022/06/21 07:55:29;;;;;;;1999.90;999.90;;;19.40;99.90;;;;;;5071985;28;20081;-80
2022/06/21 07:58:02;;;;;;;1999.90;999.90;;;20.00;99.90;;;;;;5070133;28;20072;-80
2022/06/21 08:06:41;;;;;;;1999.90;999.90;;;20.40;99.90;;;;;;5088141;28;20142;-80
2022/06/21 08:09:13;;;;;;;1999.90;999.90;;;21.30;99.90;;;;;;5071451;28;20044;-79
2022/06/21 08:11:40;;;;;;;1999.90;999.90;;;21.20;99.90;;;;;;5070260;28;20040;-79
2022/06/21 08:14:10;;;;;;;1999.90;999.90;;;21.10;99.30;;;;;;5054496;28;20051;-79
2022/06/21 08:16:54;;;;;;;1999.90;999.90;;;20.90;99.70;;;;;;5071972;28;20044;-80
2022/06/21 08:19:49;;;;;;;1999.90;999.90;;;20.50;99.90;;;;;;5069301;28;20040;-80
2022/06/21 08:22:23;;;;;;;1999.90;999.90;;;20.00;99.90;;;;;;5032928;28;20509;-80
2022/06/21 08:25:05;;;;;;;1999.90;999.90;;;20.20;99.90;;;;;;5105320;28;20046;-80
2022/06/21 08:27:35;;;;;;;1999.90;999.90;;;20.90;99.90;;;;;;5088763;28;20043;-80
2022/06/21 08:30:06;;;;;;;1999.90;999.90;;;21.50;99.90;;;;;;5067281;28;20036;-80
2022/06/21 08:32:37;;;;;;;1999.90;999.90;;;21.80;98.00;;;;;;5071370;28;20039;-79
2022/06/21 08:35:27;;;;;;;1999.90;999.90;;;22.00;97.60;;;;;;5053294;28;20040;-78
2022/06/21 08:38:18;;;;;;;1999.90;999.90;;;22.40;99.90;;;;;;5069944;28;20048;-79
2022/06/21 08:41:09;;;;;;;1999.90;999.90;;;22.40;97.40;;;;;;5103624;28;20055;-80
2022/06/21 08:43:52;;;;;;;1999.90;999.90;;;22.40;96.20;;;;;;5071573;28;20052;-80
2022/06/21 08:46:17;;;;;;;1999.90;999.90;;;22.50;97.60;;;;;;5069913;28;20039;-79
2022/06/21 08:48:43;;;;;;;1999.90;999.90;;;22.60;97.20;;;;;;5071485;28;20508;-78
2022/06/21 08:51:57;;;;;;;1999.90;999.90;;;22.70;94.30;;;;;;5070699;28;20526;-80
2022/06/21 08:54:25;;;;;;;1999.90;999.90;;;22.90;94.40;;;;;;4999699;28;20053;-80
2022/06/21 08:57:13;;;;;;;1999.90;999.90;;;22.90;93.80;;;;;;5104806;28;20067;-80
2022/06/21 09:00:08;;;;;;;1999.90;999.90;;;22.90;95.10;;;;;;5049522;28;20040;-80
2022/06/21 09:02:59;;;;;;;1999.90;999.90;;;22.70;97.60;;;;;;5104150;28;20067;-80
2022/06/21 09:05:33;;;;;;;1999.90;999.90;;;22.60;93.00;;;;;;5053295;28;20504;-80
2022/06/21 09:08:28;;;;;;;1999.90;999.90;;;23.00;97.70;;;;;;5064019;28;20049;-80
2022/06/21 09:11:18;;;;;;;1999.90;999.90;;;23.30;93.00;;;;;;5066936;28;20498;-80
2022/06/21 09:13:53;;;;;;;1999.90;999.90;;;23.70;91.40;;;;;;5070455;28;20059;-80
2022/06/21 09:16:50;;;;;;;1999.90;999.90;;;24.00;93.20;;;;;;5066285;28;20051;-80
2022/06/21 09:19:49;;;;;;;1999.90;999.90;;;24.10;89.90;;;;;;5048007;28;20159;-80
2022/06/21 09:22:37;;;;;;;1999.90;999.90;;;24.50;92.70;;;;;;5068564;28;20489;-80
2022/06/21 09:25:26;;;;;;;1999.90;999.90;;;24.40;90.90;;;;;;5070844;28;20052;-80
2022/06/21 09:28:01;;;;;;;1999.90;999.90;;;24.10;90.10;;;;;;5065344;28;20051;-79
2022/06/21 09:30:41;;;;;;;1999.90;999.90;;;24.00;91.10;;;;;;5064627;28;20101;-80
2022/06/21 09:33:21;;;;;;;1999.90;999.90;;;23.90;88.80;;;;;;5104265;28;20048;-80
2022/06/21 09:36:04;;;;;;;1999.90;999.90;;;24.20;89.60;;;;;;5068032;28;20044;-79
2022/06/21 09:38:51;;;;;;;1999.90;999.90;;;24.60;89.10;;;;;;5104155;28;20036;-79
2022/06/21 09:41:40;;;;;;;1999.90;999.90;;;24.70;82.00;;;;;;5069423;28;20529;-79
2022/06/21 09:44:24;;;;;;;1999.90;999.90;;;24.70;80.50;;;;;;5068465;28;20104;-80
2022/06/21 09:47:11;;;;;;;1999.90;999.90;;;25.10;88.60;;;;;;5070432;28;20052;-79
2022/06/21 09:49:54;;;;;;;1999.90;999.90;;;25.20;85.60;;;;;;5064621;28;20047;-80
2022/06/21 09:52:40;;;;;;;1999.90;999.90;;;25.00;83.50;;;;;;5077959;28;21009;-80
2022/06/21 09:55:51;;;;;;;1999.90;999.90;;;24.90;82.00;;;;;;5100721;28;20296;-80
2022/06/21 09:58:44;;;;;;;1999.90;999.90;;;24.20;75.40;;;;;;5068194;28;20047;-80
2022/06/21 10:01:20;;;;;;;1999.90;999.90;;;23.60;76.40;;;;;;5054571;28;20052;-80
2022/06/21 10:03:53;;;;;;;1999.90;999.90;;;23.20;78.10;;;;;;5072530;28;20040;-80
2022/06/21 10:06:25;;;;;;;1999.90;999.90;;;22.80;79.10;;;;;;5084173;28;20093;-79
2022/06/21 10:09:20;;;;;;;1999.90;999.90;;;22.90;86.10;;;;;;5098263;28;20047;-79
2022/06/21 10:12:00;;;;;;;1999.90;999.90;;;23.10;86.30;;;;;;5091630;28;20274;-79
2022/06/21 10:14:28;;;;;;;1999.90;999.90;;;23.40;82.80;;;;;;5066692;28;20035;-78
2022/06/21 10:17:35;;;;;;;1999.90;999.90;;;23.90;84.50;;;;;;5095533;28;20067;-79
2022/06/21 10:20:30;;;;;;;1999.90;999.90;;;24.10;80.10;;;;;;5077976;28;20056;-79
2022/06/21 10:23:25;;;;;;;1999.90;999.90;;;24.20;78.80;;;;;;5068314;28;20052;-80
2022/06/21 10:26:18;;;;;;;1999.90;999.90;;;24.40;72.90;;;;;;5066425;28;20070;-79
2022/06/21 10:29:06;;;;;;;1999.90;999.90;;;24.40;79.10;;;;;;5071178;28;20044;-78
2022/06/21 10:31:40;;;;;;;1999.90;999.90;;;24.20;78.10;;;;;;5104838;28;20082;-79
2022/06/21 10:34:27;;;;;;;1999.90;999.90;;;24.00;74.80;;;;;;5086619;28;20529;-80
2022/06/21 10:37:30;;;;;;;1999.90;999.90;;;24.00;72.50;;;;;;5061846;28;20060;-79
2022/06/21 10:40:24;;;;;;;1999.90;999.90;;;24.00;73.20;;;;;;5090090;28;20552;-79
2022/06/21 10:42:55;;;;;;;1999.90;999.90;;;24.00;75.40;;;;;;5084247;28;20090;-79
2022/06/21 10:45:39;;;;;;;1999.90;999.90;;;24.10;76.80;;;;;;5073590;28;20391;-79
2022/06/21 10:48:42;;;;;;;1999.90;999.90;;;24.20;75.10;;;;;;5068509;28;20077;-79
2022/06/21 10:51:26;;;;;;;1999.90;999.90;;;24.10;74.10;;;;;;5063863;28;20036;-79
2022/06/21 10:54:13;;;;;;;1999.90;999.90;;;24.30;75.00;;;;;;5060192;28;20048;-79
2022/06/21 10:57:16;;;;;;;1999.90;999.90;;;24.50;72.70;;;;;;5075099;28;20447;-79
2022/06/21 11:03:09;;;;;;;1999.90;999.90;;;24.10;74.90;;;;;;5086541;28;20048;-79
2022/06/21 11:05:53;;;;;;;1999.90;999.90;;;24.30;76.80;;;;;;5054773;28;20075;-79
2022/06/21 11:08:21;;;;;;;1999.90;999.90;;;24.30;75.00;;;;;;5091156;28;20044;-79
2022/06/21 11:10:53;;;;;;;1999.90;999.90;;;24.40;71.00;;;;;;5062936;28;20101;-79
2022/06/21 11:13:24;;;;;;;1999.90;999.90;;;24.30;72.70;;;;;;5052802;28;20075;-79
2022/06/21 11:16:21;;;;;;;1999.90;999.90;;;24.40;73.20;;;;;;5067579;28;20036;-79
2022/06/21 11:19:08;;;;;;;1999.90;999.90;;;24.40;71.30;;;;;;5102218;28;20048;-79
2022/06/21 11:22:00;;;;;;;1999.90;999.90;;;24.30;69.50;;;;;;5085278;28;20039;-78
2022/06/21 11:24:49;;;;;;;1999.90;999.90;;;24.30;72.20;;;;;;5027971;28;20083;-79
2022/06/21 11:27:43;;;;;;;1999.90;999.90;;;24.30;70.40;;;;;;5093885;28;20502;-79
2022/06/21 11:30:12;;;;;;;1999.90;999.90;;;24.00;70.50;;;;;;5071014;28;20065;-78
2022/06/21 11:33:00;;;;;;;1999.90;999.90;;;24.00;70.70;;;;;;5069242;28;20127;-79
2022/06/21 11:35:30;;;;;;;1999.90;999.90;;;23.80;70.70;;;;;;5049368;28;20052;-79
2022/06/21 11:38:17;;;;;;;1999.90;999.90;;;23.50;70.00;;;;;;5056098;28;20055;-78
2022/06/21 11:40:58;;;;;;;1999.90;999.90;;;23.30;73.00;;;;;;5087768;28;20048;-79
2022/06/21 11:43:48;;;;;;;1999.90;999.90;;;23.40;74.10;;;;;;5096009;28;20193;-79
2022/06/21 11:46:34;;;;;;;1999.90;999.90;;;23.70;73.00;;;;;;5061661;28;20381;-79
2022/06/21 11:49:09;;;;;;;1999.90;999.90;;;23.90;70.90;;;;;;5061948;28;20120;-78
2022/06/21 11:52:08;;;;;;;1999.90;999.90;;;24.10;68.60;;;;;;5068792;28;20055;-78
2022/06/21 11:54:59;;;;;;;1999.90;999.90;;;24.20;72.70;;;;;;5074520;28;20072;-79
2022/06/21 11:57:38;;;;;;;1999.90;999.90;;;24.40;67.20;;;;;;5072929;28;20032;-79
2022/06/21 12:00:10;;;;;;;1999.90;999.90;;;24.50;69.20;;;;;;5066321;28;20093;-79
2022/06/21 12:02:59;;;;;;;1999.90;999.90;;;24.20;68.50;;;;;;5098314;28;20044;-78
2022/06/21 12:05:52;;;;;;;1999.90;999.90;;;24.20;67.20;;;;;;5099495;28;20413;-79
2022/06/21 12:08:37;;;;;;;1999.90;999.90;;;24.20;69.60;;;;;;5079600;28;20122;-78
2022/06/21 12:11:36;;;;;;;1999.90;999.90;;;24.10;66.80;;;;;;5100954;28;20045;-79
2022/06/21 12:14:31;;;;;;;1999.90;999.90;;;24.20;68.20;;;;;;5065810;28;20059;-78
2022/06/21 12:17:12;;;;;;;1999.90;999.90;;;24.50;67.00;;;;;;5076752;28;20047;-77
2022/06/21 12:19:42;;;;;;;1999.90;999.90;;;24.60;67.90;;;;;;5071891;28;20552;-78
2022/06/21 12:22:25;;;;;;;1999.90;999.90;;;24.80;69.40;;;;;;5063160;28;20481;-78
2022/06/21 12:24:51;;;;;;;1999.90;999.90;;;25.00;68.40;;;;;;5057237;28;20554;-78
2022/06/21 12:27:17;;;;;;;1999.90;999.90;;;25.00;68.80;;;;;;5092862;28;20123;-78
2022/06/21 12:29:43;;;;;;;1999.90;999.90;;;25.10;67.40;;;;;;5075762;28;20039;-78
2022/06/21 12:32:18;;;;;;;1999.90;999.90;;;25.30;64.50;;;;;;5090750;28;20066;-78
2022/06/21 12:34:55;;;;;;;1999.90;999.90;;;25.50;66.80;;;;;;5068930;28;20535;-78
2022/06/21 12:37:45;;;;;;;1999.90;999.90;;;25.30;64.50;;;;;;5091884;28;20071;-78
2022/06/21 12:40:31;;;;;;;1999.90;999.90;;;25.10;64.70;;;;;;5096983;27;20056;-78
2022/06/21 12:43:15;;;;;;;1999.90;999.90;;;25.00;64.40;;;;;;5067454;28;20051;-78
2022/06/21 12:46:03;;;;;;;1999.90;999.90;;;25.10;63.30;;;;;;5060889;28;20050;-79
2022/06/21 12:49:10;;;;;;;1999.90;999.90;;;25.10;65.30;;;;;;5090949;28;20119;-79
2022/06/21 12:51:48;;;;;;;1999.90;999.90;;;25.20;63.50;;;;;;5066585;27;20056;-78
2022/06/21 12:54:27;;;;;;;1999.90;999.90;;;25.30;64.50;;;;;;5076574;28;20044;-78
2022/06/21 12:57:19;;;;;;;1999.90;999.90;;;25.40;62.10;;;;;;5070633;28;20519;-78
2022/06/21 13:00:02;;;;;;;1999.90;999.90;;;25.50;64.00;;;;;;5080460;28;20040;-78
2022/06/21 13:02:41;;;;;;;1999.90;999.90;;;25.30;63.70;;;;;;5058729;28;20517;-78
2022/06/21 13:05:12;;;;;;;1999.90;999.90;;;25.30;62.60;;;;;;5069733;28;20036;-78